createdAt,value
2023-02-14T00:02:17.679Z,1.70
2023-02-14T00:04:46.011Z,2.00
2023-02-14T00:07:13.475Z,1.90
2023-02-14T00:09:41.816Z,2.10
2023-02-14T00:12:09.349Z,2.10
2023-02-14T00:14:55.075Z,2.10
2023-02-14T00:17:22.609Z,1.90
2023-02-14T00:19:50.172Z,1.80
2023-02-14T00:22:17.720Z,1.70
2023-02-14T00:24:45.251Z,1.60
2023-02-14T00:27:12.786Z,1.50
2023-02-14T00:29:41.117Z,1.40
2023-02-14T00:32:08.742Z,1.40
2023-02-14T00:34:36.196Z,1.30
2023-02-14T00:37:03.741Z,1.30
2023-02-14T00:39:32.182Z,1.30
2023-02-14T00:41:59.742Z,1.20
2023-02-14T00:44:27.320Z,1.20
2023-02-14T00:46:54.866Z,1.50
2023-02-14T00:49:22.392Z,1.50
2023-02-14T00:51:49.933Z,1.40
2023-02-14T00:54:17.479Z,1.70
2023-02-14T00:56:45.782Z,1.50
2023-02-14T00:59:13.364Z,1.50
2023-02-14T01:01:40.924Z,1.40
2023-02-14T01:04:08.454Z,1.30
2023-02-14T01:06:35.999Z,1.30
2023-02-14T01:09:04.304Z,1.10
2023-02-14T01:11:31.832Z,1.10
2023-02-14T01:14:00.546Z,1.30
2023-02-14T01:16:28.195Z,1.30
2023-02-14T01:18:55.631Z,1.30
2023-02-14T01:21:23.945Z,1.10
2023-02-14T01:23:51.477Z,1.10
2023-02-14T01:26:19.809Z,1.00
2023-02-14T01:28:47.424Z,1.00
2023-02-14T01:31:17.550Z,0.90
2023-02-14T01:33:45.004Z,0.80
2023-02-14T01:36:21.424Z,0.80
2023-02-14T01:38:48.937Z,0.70
2023-02-14T01:41:16.484Z,0.70
2023-02-14T01:43:53.874Z,0.60
2023-02-14T01:46:21.410Z,0.60
2023-02-14T01:48:49.722Z,0.60
2023-02-14T01:51:17.289Z,0.60
2023-02-14T01:53:44.813Z,0.60
2023-02-14T01:56:13.128Z,0.60
2023-02-14T01:58:40.703Z,0.60
2023-02-14T02:01:08.266Z,0.70
2023-02-14T02:03:35.776Z,0.70
2023-02-14T02:06:16.281Z,0.70
2023-02-14T02:09:01.579Z,0.60
2023-02-14T02:11:29.162Z,0.60
2023-02-14T02:13:57.455Z,0.90
2023-02-14T02:16:40.168Z,0.90
2023-02-14T02:19:10.278Z,0.90
2023-02-14T02:22:00.137Z,0.90
2023-02-14T02:24:42.357Z,0.80
2023-02-14T02:27:19.531Z,1.10
2023-02-14T02:30:12.231Z,1.10
2023-02-14T02:32:45.717Z,1.10
2023-02-14T02:35:37.512Z,1.00
2023-02-14T02:38:24.188Z,0.90
2023-02-14T02:41:16.122Z,0.80
2023-02-14T02:44:05.081Z,0.80
2023-02-14T02:46:50.595Z,0.70
2023-02-14T02:50:12.884Z,1.00
2023-02-14T02:53:04.192Z,1.30
2023-02-14T02:56:01.795Z,1.20
2023-02-14T02:58:38.130Z,1.20
2023-02-14T03:01:08.203Z,1.10
2023-02-14T03:03:53.830Z,1.00
2023-02-14T03:06:21.383Z,0.90
2023-02-14T03:08:48.938Z,0.90
2023-02-14T03:11:16.450Z,0.80
2023-02-14T03:14:09.132Z,0.80
2023-02-14T03:16:57.714Z,0.80
2023-02-14T03:19:27.841Z,0.80
2023-02-14T03:21:55.367Z,0.80
2023-02-14T03:24:38.005Z,0.80
2023-02-14T03:27:29.772Z,0.90
2023-02-14T03:30:10.044Z,0.80
2023-02-14T03:32:46.315Z,0.80
2023-02-14T03:35:20.264Z,1.00
2023-02-14T03:37:59.878Z,1.00
2023-02-14T03:40:39.180Z,1.00
2023-02-14T03:43:13.448Z,1.10
2023-02-14T03:45:49.675Z,1.10
2023-02-14T03:48:17.218Z,1.00
2023-02-14T03:50:45.533Z,0.80
2023-02-14T03:53:13.126Z,0.80
2023-02-14T03:56:10.860Z,0.70
2023-02-14T03:58:38.394Z,0.70
2023-02-14T04:01:11.382Z,0.90
2023-02-14T04:03:38.942Z,0.90
2023-02-14T04:06:06.462Z,0.80
2023-02-14T04:08:33.996Z,0.70
2023-02-14T04:11:01.835Z,0.90
2023-02-14T04:13:29.087Z,0.90
2023-02-14T04:15:56.613Z,0.90
2023-02-14T04:18:42.292Z,0.80
2023-02-14T04:21:10.614Z,0.70
2023-02-14T04:23:38.128Z,0.70
2023-02-14T04:26:06.452Z,0.60
2023-02-14T04:28:34.006Z,0.60
2023-02-14T04:31:02.181Z,0.60
2023-02-14T04:33:29.133Z,0.70
2023-02-14T04:35:56.668Z,0.70
2023-02-14T04:38:24.192Z,0.60
2023-02-14T04:40:51.737Z,0.50
2023-02-14T04:43:19.278Z,0.40
2023-02-14T04:45:46.807Z,0.30
2023-02-14T04:48:14.375Z,0.20
2023-02-14T04:50:41.934Z,0.20
2023-02-14T04:53:09.430Z,0.10
2023-02-14T04:55:37.014Z,0.10
2023-02-14T04:58:05.309Z,0.20
2023-02-14T05:00:32.946Z,0.30
2023-02-14T05:03:01.192Z,0.20
2023-02-14T05:05:28.726Z,0.20
2023-02-14T05:07:56.276Z,0.20
2023-02-14T05:10:23.885Z,0.40
2023-02-14T05:12:51.409Z,0.40
2023-02-14T05:15:18.955Z,0.30
2023-02-14T05:17:46.529Z,0.30
2023-02-14T05:20:14.088Z,0.20
2023-02-14T05:22:41.627Z,0.10
2023-02-14T05:25:09.225Z,0.10
2023-02-14T05:27:36.754Z,0.00
2023-02-14T05:30:04.334Z,0.00
2023-02-14T05:32:32.622Z,0.00
2023-02-14T05:35:01.227Z,0.00
2023-02-14T05:37:27.702Z,0.00
2023-02-14T05:39:55.285Z,-0.10
2023-02-14T05:42:22.862Z,-0.10
2023-02-14T05:44:50.347Z,-0.10
2023-02-14T05:47:18.695Z,-0.10
2023-02-14T05:49:46.221Z,-0.10
2023-02-14T05:52:13.828Z,-0.10
2023-02-14T05:54:42.104Z,0.00
2023-02-14T05:57:09.625Z,0.00
2023-02-14T05:59:37.161Z,0.00
2023-02-14T06:02:04.792Z,0.00
2023-02-14T06:04:32.352Z,0.00
2023-02-14T06:06:59.855Z,0.00
2023-02-14T06:09:27.431Z,0.30
2023-02-14T06:11:55.431Z,0.30
2023-02-14T06:14:22.495Z,0.20
2023-02-14T06:16:50.868Z,0.10
2023-02-14T06:19:18.358Z,0.10
2023-02-14T06:21:45.899Z,0.30
2023-02-14T06:24:14.610Z,0.20
2023-02-14T06:26:42.169Z,0.20
2023-02-14T06:29:09.689Z,0.20
2023-02-14T06:31:37.332Z,0.10
2023-02-14T06:34:05.569Z,0.00
2023-02-14T06:36:33.090Z,0.00
2023-02-14T06:39:01.464Z,0.00
2023-02-14T06:41:29.009Z,-0.10
2023-02-14T06:43:56.540Z,-0.10
2023-02-14T06:46:24.233Z,-0.10
2023-02-14T06:48:51.679Z,0.20
2023-02-14T06:51:19.205Z,0.20
2023-02-14T06:53:46.799Z,0.10
2023-02-14T06:56:14.334Z,0.30
2023-02-14T06:58:41.927Z,0.30
2023-02-14T07:01:09.520Z,0.20
2023-02-14T07:03:37.784Z,0.00
2023-02-14T07:06:06.129Z,0.00
2023-02-14T07:08:33.713Z,0.00
2023-02-14T07:11:01.591Z,0.00
2023-02-14T07:13:28.775Z,0.20
2023-02-14T07:15:56.493Z,0.20
2023-02-14T07:18:23.898Z,0.40
2023-02-14T07:20:51.453Z,0.30
2023-02-14T07:23:19.064Z,0.10
2023-02-14T07:25:46.572Z,0.00
2023-02-14T07:28:14.105Z,0.00
2023-02-14T07:30:41.779Z,-0.10
2023-02-14T07:33:09.293Z,-0.20
2023-02-14T07:35:36.778Z,-0.20
2023-02-14T07:38:04.372Z,-0.20
2023-02-14T07:40:31.950Z,-0.20
2023-02-14T07:42:59.493Z,-0.20
2023-02-14T07:45:27.065Z,-0.30
2023-02-14T07:47:54.589Z,-0.30
2023-02-14T07:50:22.152Z,-0.30
2023-02-14T07:52:49.762Z,-0.30
2023-02-14T07:55:17.275Z,-0.30
2023-02-14T07:57:44.803Z,-0.30
2023-02-14T08:00:13.196Z,-0.30
2023-02-14T08:02:40.732Z,-0.30
2023-02-14T08:05:09.181Z,-0.30
2023-02-14T08:07:36.660Z,-0.30
2023-02-14T08:10:05.121Z,-0.10
2023-02-14T08:12:50.729Z,0.00
2023-02-14T08:15:37.236Z,0.00
2023-02-14T08:18:05.593Z,0.00
2023-02-14T08:20:33.120Z,-0.10
2023-02-14T08:23:00.647Z,0.00
2023-02-14T08:25:28.239Z,0.00
2023-02-14T08:27:55.814Z,0.00
2023-02-14T08:30:23.366Z,0.00
2023-02-14T08:32:51.709Z,0.10
2023-02-14T08:35:19.202Z,0.10
2023-02-14T08:37:46.728Z,0.20
2023-02-14T08:40:14.316Z,0.20
2023-02-14T08:42:41.859Z,0.50
2023-02-14T08:45:09.548Z,0.60
2023-02-14T08:47:37.131Z,0.60
2023-02-14T08:50:07.544Z,0.60
2023-02-14T08:52:35.100Z,0.60
2023-02-14T08:55:02.666Z,0.80
2023-02-14T08:57:30.246Z,0.90
2023-02-14T08:59:57.710Z,0.90
2023-02-14T09:02:26.107Z,0.90
2023-02-14T09:04:53.592Z,0.90
2023-02-14T09:07:21.154Z,0.90
2023-02-14T09:09:48.730Z,1.20
2023-02-14T09:12:16.262Z,1.50
2023-02-14T09:14:46.310Z,1.50
2023-02-14T09:17:13.860Z,1.50
2023-02-14T09:19:41.387Z,1.70
2023-02-14T09:22:08.935Z,1.80
2023-02-14T09:24:38.053Z,1.70
2023-02-14T09:27:05.585Z,1.80
2023-02-14T09:29:33.121Z,1.70
2023-02-14T09:32:01.599Z,1.80
2023-02-14T09:34:29.019Z,1.80
2023-02-14T09:36:56.549Z,1.80
2023-02-14T09:39:24.127Z,1.80
2023-02-14T09:42:19.468Z,2.10
2023-02-14T09:44:59.076Z,2.10
2023-02-14T09:47:41.988Z,2.20
2023-02-14T09:50:18.079Z,2.10
2023-02-14T09:52:45.614Z,2.10
2023-02-14T09:55:15.875Z,2.10
2023-02-14T09:57:44.217Z,2.40
2023-02-14T10:00:17.808Z,2.40
2023-02-14T10:03:03.626Z,2.40
2023-02-14T10:05:34.094Z,2.40
2023-02-14T10:08:22.614Z,2.50
2023-02-14T10:11:11.445Z,2.60
2023-02-14T10:13:51.177Z,2.70
2023-02-14T10:16:26.735Z,2.80
2023-02-14T10:19:04.918Z,2.90
2023-02-14T10:21:38.280Z,2.80
2023-02-14T10:24:18.221Z,3.00
2023-02-14T10:26:45.766Z,3.00
2023-02-14T10:29:15.713Z,3.10
2023-02-14T10:31:47.062Z,3.40
2023-02-14T10:34:33.094Z,3.30
2023-02-14T10:37:19.077Z,3.50
2023-02-14T10:40:10.955Z,3.60
2023-02-14T10:42:50.307Z,3.70
2023-02-14T10:45:39.900Z,3.90
2023-02-14T10:48:22.761Z,3.90
2023-02-14T10:50:53.263Z,4.10
2023-02-14T10:53:26.752Z,4.20
2023-02-14T10:56:06.485Z,4.60
2023-02-14T10:58:34.009Z,4.70
2023-02-14T11:01:04.599Z,4.80
2023-02-14T11:03:32.945Z,5.10
2023-02-14T11:06:00.468Z,5.10
2023-02-14T11:08:33.937Z,5.30
2023-02-14T11:11:22.998Z,5.40
2023-02-14T11:13:50.552Z,5.60
2023-02-14T11:16:33.498Z,5.70
2023-02-14T11:19:10.383Z,5.80
2023-02-14T11:21:37.923Z,6.00
2023-02-14T11:24:18.705Z,6.20
2023-02-14T11:26:46.318Z,6.50
2023-02-14T11:29:13.787Z,6.70
2023-02-14T11:31:41.511Z,6.80
2023-02-14T11:34:33.626Z,6.90
2023-02-14T11:37:01.207Z,7.00
2023-02-14T11:39:32.269Z,7.30
2023-02-14T11:41:59.789Z,7.30
2023-02-14T11:44:27.358Z,7.40
2023-02-14T11:46:54.894Z,7.40
2023-02-14T11:49:28.244Z,7.50
2023-02-14T11:51:56.590Z,7.80
2023-02-14T11:54:26.884Z,7.80
2023-02-14T11:56:57.121Z,7.90
2023-02-14T11:59:33.064Z,7.90
2023-02-14T12:02:03.120Z,8.20
2023-02-14T12:04:38.196Z,8.30
2023-02-14T12:07:10.182Z,8.30
2023-02-14T12:09:37.717Z,8.30
2023-02-14T12:12:05.238Z,8.40
2023-02-14T12:14:33.595Z,8.60
2023-02-14T12:17:01.146Z,8.60
2023-02-14T12:19:49.908Z,8.80
2023-02-14T12:22:17.432Z,8.90
2023-02-14T12:24:50.396Z,8.90
2023-02-14T12:27:23.622Z,9.20
2023-02-14T12:30:02.682Z,9.30
2023-02-14T12:32:30.244Z,9.40
2023-02-14T12:35:01.434Z,9.70
2023-02-14T12:37:31.762Z,9.70
2023-02-14T12:40:11.203Z,9.80
2023-02-14T12:42:44.742Z,9.80
2023-02-14T12:45:23.950Z,9.90
2023-02-14T12:48:06.561Z,9.90
2023-02-14T12:50:42.723Z,9.90
2023-02-14T12:53:34.272Z,10.00
2023-02-14T12:56:02.707Z,10.10
2023-02-14T12:58:35.900Z,10.10
2023-02-14T13:01:12.204Z,10.10
2023-02-14T13:03:57.874Z,10.20
2023-02-14T13:06:25.457Z,10.30
2023-02-14T13:09:24.543Z,10.40
2023-02-14T13:12:26.012Z,10.40
2023-02-14T13:15:15.465Z,10.90
2023-02-14T13:17:45.519Z,10.80
2023-02-14T13:20:22.940Z,11.00
2023-02-14T13:22:50.521Z,11.00
2023-02-14T13:25:29.709Z,11.00
2023-02-14T13:27:57.306Z,11.10
2023-02-14T13:30:27.793Z,11.50
2023-02-14T13:32:55.288Z,11.50
2023-02-14T13:35:22.899Z,11.60
2023-02-14T13:37:50.418Z,11.60
2023-02-14T13:40:17.956Z,11.70
2023-02-14T13:42:48.501Z,11.90
2023-02-14T13:45:36.702Z,12.30
2023-02-14T13:48:13.614Z,12.30
2023-02-14T13:50:53.111Z,12.30
2023-02-14T13:53:32.751Z,12.30
2023-02-14T13:56:00.621Z,12.30
2023-02-14T13:58:28.611Z,12.30
2023-02-14T14:00:56.270Z,12.30
2023-02-14T14:03:29.989Z,12.30
2023-02-14T14:06:09.369Z,12.30
2023-02-14T14:08:39.660Z,12.30
2023-02-14T14:11:22.298Z,12.40
2023-02-14T14:14:14.933Z,12.90
2023-02-14T14:16:42.511Z,12.90
2023-02-14T14:19:19.789Z,12.90
2023-02-14T14:21:49.815Z,12.90
2023-02-14T14:24:26.890Z,13.10
2023-02-14T14:27:00.137Z,13.10
2023-02-14T14:29:39.811Z,13.10
2023-02-14T14:32:12.789Z,13.00
2023-02-14T14:34:40.307Z,13.00
2023-02-14T14:37:07.840Z,13.20
2023-02-14T14:39:35.425Z,13.20
2023-02-14T14:42:06.978Z,13.20
2023-02-14T14:44:34.050Z,13.10
2023-02-14T14:47:01.622Z,13.10
2023-02-14T14:49:29.173Z,13.10
2023-02-14T14:51:56.717Z,13.10
2023-02-14T14:54:27.096Z,13.10
2023-02-14T14:56:54.623Z,13.10
2023-02-14T14:59:28.405Z,13.10
2023-02-14T15:01:55.984Z,13.10
2023-02-14T15:04:29.226Z,13.10
2023-02-14T15:06:56.716Z,13.10
2023-02-14T15:09:24.345Z,13.30
2023-02-14T15:12:09.660Z,13.30
2023-02-14T15:14:37.262Z,13.20
2023-02-14T15:17:04.840Z,13.20
2023-02-14T15:19:34.879Z,13.10
2023-02-14T15:22:02.437Z,13.00
2023-02-14T15:24:30.710Z,13.20
2023-02-14T15:26:58.255Z,13.20
2023-02-14T15:29:29.315Z,13.10
2023-02-14T15:31:56.911Z,13.10
2023-02-14T15:34:24.363Z,13.00
2023-02-14T15:36:51.945Z,13.00
2023-02-14T15:39:19.476Z,12.90
2023-02-14T15:41:47.020Z,12.90
2023-02-14T15:44:20.600Z,12.80
2023-02-14T15:46:48.167Z,12.80
2023-02-14T15:49:16.489Z,13.00
2023-02-14T15:51:44.100Z,13.00
2023-02-14T15:54:18.663Z,13.20
2023-02-14T15:56:46.201Z,13.20
2023-02-14T15:59:19.549Z,13.20
2023-02-14T16:01:59.075Z,13.10
2023-02-14T16:04:26.690Z,13.00
2023-02-14T16:07:05.983Z,12.90
2023-02-14T16:09:36.356Z,12.80
2023-02-14T16:12:12.977Z,12.80
2023-02-14T16:14:40.559Z,13.00
2023-02-14T16:17:08.156Z,13.00
2023-02-14T16:19:41.683Z,13.00
2023-02-14T16:22:09.223Z,13.10
2023-02-14T16:24:36.788Z,13.10
2023-02-14T16:27:04.322Z,12.90
2023-02-14T16:29:31.878Z,12.70
2023-02-14T16:32:15.655Z,12.60
2023-02-14T16:34:27.012Z,12.50
2023-02-14T16:36:54.530Z,12.30
2023-02-14T16:39:22.105Z,12.10
2023-02-14T16:41:49.660Z,11.90
2023-02-14T16:44:17.195Z,11.80
2023-02-14T16:46:48.678Z,11.60
2023-02-14T16:49:16.222Z,11.60
2023-02-14T16:51:43.758Z,11.40
2023-02-14T16:54:12.110Z,11.30
2023-02-14T16:56:42.556Z,11.20
2023-02-14T16:59:10.092Z,11.10
2023-02-14T17:01:37.731Z,11.00
2023-02-14T17:04:06.001Z,10.80
2023-02-14T17:06:33.554Z,10.80
2023-02-14T17:09:01.179Z,10.70
2023-02-14T17:11:28.683Z,10.60
2023-02-14T17:13:56.218Z,10.50
2023-02-14T17:16:23.803Z,10.40
2023-02-14T17:18:51.375Z,10.20
2023-02-14T17:21:18.883Z,10.10
2023-02-14T17:23:47.490Z,9.90
2023-02-14T17:26:15.025Z,9.90
2023-02-14T17:28:43.318Z,9.70
2023-02-14T17:31:11.018Z,9.70
2023-02-14T17:33:38.467Z,9.60
2023-02-14T17:36:05.965Z,9.50
2023-02-14T17:38:33.570Z,9.40
2023-02-14T17:41:01.375Z,9.20
2023-02-14T17:43:28.625Z,9.10
2023-02-14T17:45:56.212Z,9.00
2023-02-14T17:48:24.531Z,8.80
2023-02-14T17:50:52.046Z,8.80
2023-02-14T17:53:20.398Z,8.60
2023-02-14T17:55:47.923Z,8.60
2023-02-14T17:58:15.451Z,8.50
2023-02-14T18:00:43.792Z,8.70
2023-02-14T18:03:11.368Z,8.60
2023-02-14T18:05:38.873Z,8.50
2023-02-14T18:08:06.447Z,8.40
2023-02-14T18:10:34.002Z,8.30
2023-02-14T18:13:01.529Z,8.10
2023-02-14T18:15:29.454Z,8.00
2023-02-14T18:17:57.022Z,7.80
2023-02-14T18:20:24.534Z,7.70
2023-02-14T18:22:52.109Z,7.60
2023-02-14T18:25:19.654Z,7.40
2023-02-14T18:27:47.210Z,7.30
2023-02-14T18:30:14.882Z,7.20
2023-02-14T18:32:42.383Z,7.10
2023-02-14T18:35:09.940Z,7.00
2023-02-14T18:37:37.533Z,6.90
2023-02-14T18:40:05.860Z,6.80
2023-02-14T18:42:33.400Z,6.70
2023-02-14T18:45:00.972Z,6.70
2023-02-14T18:47:28.515Z,6.90
2023-02-14T18:49:56.054Z,7.10
2023-02-14T18:52:23.612Z,7.00
2023-02-14T18:54:51.166Z,6.80
2023-02-14T18:57:18.680Z,6.60
2023-02-14T18:59:46.254Z,6.50
2023-02-14T19:02:14.595Z,6.50
2023-02-14T19:04:42.098Z,6.50
2023-02-14T19:07:10.447Z,6.30
2023-02-14T19:09:37.994Z,6.20
2023-02-14T19:12:08.282Z,6.10
2023-02-14T19:14:35.851Z,6.20
2023-02-14T19:17:03.376Z,6.10
2023-02-14T19:19:31.690Z,5.80
2023-02-14T19:21:59.276Z,5.80
2023-02-14T19:24:26.823Z,5.60
2023-02-14T19:26:54.342Z,5.50
2023-02-14T19:29:21.943Z,5.40
2023-02-14T19:31:49.682Z,5.20
2023-02-14T19:34:28.293Z,5.10
2023-02-14T19:36:53.429Z,5.10
2023-02-14T19:39:20.969Z,5.00
2023-02-14T19:41:48.883Z,4.90
2023-02-14T19:44:16.086Z,4.80
2023-02-14T19:46:43.606Z,4.80
2023-02-14T19:49:13.705Z,4.70
2023-02-14T19:51:41.259Z,4.60
2023-02-14T19:54:08.803Z,4.50
2023-02-14T19:56:36.367Z,4.70
2023-02-14T19:59:03.913Z,4.70
2023-02-14T20:01:31.513Z,4.60
2023-02-14T20:04:00.149Z,4.40
2023-02-14T20:06:27.686Z,4.50
2023-02-14T20:08:56.010Z,4.30
2023-02-14T20:11:23.575Z,4.30
2023-02-14T20:13:51.108Z,4.20
2023-02-14T20:16:18.660Z,4.20
2023-02-14T20:18:46.216Z,4.40
2023-02-14T20:21:16.723Z,4.30
2023-02-14T20:23:45.036Z,4.20
2023-02-14T20:26:12.609Z,4.10
2023-02-14T20:28:40.164Z,4.10
2023-02-14T20:31:10.443Z,4.00
2023-02-14T20:33:37.960Z,4.20
2023-02-14T20:36:05.515Z,4.10
2023-02-14T20:38:33.039Z,4.00
2023-02-14T20:41:06.363Z,3.90
2023-02-14T20:43:33.910Z,3.80
2023-02-14T20:46:01.501Z,3.70
2023-02-14T20:48:29.028Z,3.80
2023-02-14T20:50:56.553Z,3.70
2023-02-14T20:53:24.119Z,3.60
2023-02-14T20:55:51.652Z,3.40
2023-02-14T20:58:23.085Z,3.20
2023-02-14T21:00:50.636Z,3.20
2023-02-14T21:03:18.573Z,3.10
2023-02-14T21:05:46.093Z,3.00
2023-02-14T21:08:13.686Z,2.90
2023-02-14T21:10:41.293Z,2.90
2023-02-14T21:13:08.828Z,2.80
2023-02-14T21:15:36.376Z,2.80
2023-02-14T21:18:03.946Z,2.80
2023-02-14T21:20:31.480Z,3.00
2023-02-14T21:22:59.019Z,3.00
2023-02-14T21:25:26.816Z,3.20
2023-02-14T21:27:54.145Z,3.20
2023-02-14T21:30:21.728Z,3.10
2023-02-14T21:32:49.255Z,3.00
2023-02-14T21:35:16.797Z,2.90
2023-02-14T21:37:45.088Z,2.70
2023-02-14T21:40:12.651Z,2.70
2023-02-14T21:42:40.186Z,3.00
2023-02-14T21:45:26.965Z,2.80
2023-02-14T21:48:12.909Z,2.80
2023-02-14T21:50:41.533Z,2.70
2023-02-14T21:53:09.067Z,2.60
2023-02-14T21:55:36.604Z,2.60
2023-02-14T21:58:04.174Z,2.50
2023-02-14T22:00:31.722Z,2.40
2023-02-14T22:03:00.112Z,2.30
2023-02-14T22:05:27.626Z,2.30
2023-02-14T22:07:55.159Z,2.20
2023-02-14T22:10:22.693Z,2.20
2023-02-14T22:12:50.270Z,2.40
2023-02-14T22:15:17.792Z,2.40
2023-02-14T22:17:45.318Z,2.30
2023-02-14T22:20:12.967Z,2.20
2023-02-14T22:22:40.485Z,2.20
2023-02-14T22:25:08.059Z,2.40
2023-02-14T22:27:38.151Z,2.60
2023-02-14T22:30:03.253Z,2.50
2023-02-14T22:32:30.692Z,2.40
2023-02-14T22:34:59.398Z,2.10
2023-02-14T22:37:26.943Z,2.10
2023-02-14T22:39:54.473Z,2.00
2023-02-14T22:42:22.037Z,2.00
2023-02-14T22:44:49.565Z,1.90
2023-02-14T22:47:17.105Z,1.90
2023-02-14T22:49:44.689Z,2.10
2023-02-14T22:52:12.217Z,2.10
2023-02-14T22:54:39.753Z,2.10
2023-02-14T22:57:08.117Z,1.90
2023-02-14T22:59:35.642Z,1.90
2023-02-14T23:02:03.241Z,1.90
2023-02-14T23:04:30.744Z,1.80
2023-02-14T23:06:58.272Z,1.80
2023-02-14T23:09:25.796Z,1.70
2023-02-14T23:11:53.383Z,1.60
2023-02-14T23:14:40.010Z,1.80
2023-02-14T23:17:26.513Z,1.70
2023-02-14T23:20:12.275Z,1.70
2023-02-14T23:22:40.634Z,1.50
2023-02-14T23:25:08.174Z,1.50
2023-02-14T23:27:38.395Z,1.50
2023-02-14T23:30:05.996Z,1.40
2023-02-14T23:32:33.511Z,1.40
2023-02-14T23:35:01.055Z,1.30
2023-02-14T23:37:28.919Z,1.50
2023-02-14T23:39:56.465Z,1.50
2023-02-14T23:42:23.991Z,1.50
2023-02-14T23:44:52.719Z,1.30
2023-02-14T23:47:20.249Z,1.30
2023-02-14T23:49:48.554Z,1.30
2023-02-14T23:52:16.153Z,1.20
2023-02-14T23:54:43.692Z,1.50
2023-02-14T23:57:11.229Z,1.80
2023-02-14T23:59:38.850Z,2.00
